sensor_id;sensor_type;location;lat;lon;timestamp;P1;durP1;ratioP1;P2;durP2;ratioP2
10880;SDS011;5493;48.884;8.338;2022-11-12T00:00:03;5.67;;;4.23;;
10880;SDS011;5493;48.884;8.338;2022-11-12T00:02:30;6.87;;;3.90;;
10880;SDS011;5493;48.884;8.338;2022-11-12T00:04:56;5.40;;;3.90;;
10880;SDS011;5493;48.884;8.338;2022-11-12T00:07:23;6.60;;;3.87;;
10880;SDS011;5493;48.884;8.338;2022-11-12T00:09:50;7.27;;;4.30;;
10880;SDS011;5493;48.884;8.338;2022-11-12T00:12:16;9.70;;;3.57;;
10880;SDS011;5493;48.884;8.338;2022-11-12T00:14:44;6.70;;;4.07;;
10880;SDS011;5493;48.884;8.338;2022-11-12T00:17:11;5.07;;;3.67;;
10880;SDS011;5493;48.884;8.338;2022-11-12T00:19:37;8.10;;;4.37;;
10880;SDS011;5493;48.884;8.338;2022-11-12T00:22:04;5.20;;;4.23;;
10880;SDS011;5493;48.884;8.338;2022-11-12T00:24:30;5.40;;;3.50;;
10880;SDS011;5493;48.884;8.338;2022-11-12T00:26:57;4.47;;;3.60;;
10880;SDS011;5493;48.884;8.338;2022-11-12T00:29:24;7.80;;;4.00;;
10880;SDS011;5493;48.884;8.338;2022-11-12T00:31:51;6.13;;;3.90;;
10880;SDS011;5493;48.884;8.338;2022-11-12T00:34:18;5.23;;;3.67;;
10880;SDS011;5493;48.884;8.338;2022-11-12T00:36:45;4.80;;;3.17;;
10880;SDS011;5493;48.884;8.338;2022-11-12T00:39:11;9.30;;;3.37;;
10880;SDS011;5493;48.884;8.338;2022-11-12T00:41:38;7.90;;;2.97;;
10880;SDS011;5493;48.884;8.338;2022-11-12T00:44:04;10.23;;;3.17;;
10880;SDS011;5493;48.884;8.338;2022-11-12T00:46:31;6.90;;;3.50;;
10880;SDS011;5493;48.884;8.338;2022-11-12T00:48:59;8.13;;;3.83;;
10880;SDS011;5493;48.884;8.338;2022-11-12T00:51:25;9.47;;;3.60;;
10880;SDS011;5493;48.884;8.338;2022-11-12T00:53:52;17.20;;;3.23;;
10880;SDS011;5493;48.884;8.338;2022-11-12T00:56:19;4.90;;;2.97;;
10880;SDS011;5493;48.884;8.338;2022-11-12T00:58:45;8.67;;;3.50;;
10880;SDS011;5493;48.884;8.338;2022-11-12T01:01:14;3.70;;;3.07;;
10880;SDS011;5493;48.884;8.338;2022-11-12T01:03:41;13.60;;;3.07;;
10880;SDS011;5493;48.884;8.338;2022-11-12T01:06:10;6.33;;;2.90;;
10880;SDS011;5493;48.884;8.338;2022-11-12T01:08:39;14.50;;;3.47;;
10880;SDS011;5493;48.884;8.338;2022-11-12T01:11:06;5.50;;;3.30;;
10880;SDS011;5493;48.884;8.338;2022-11-12T01:13:34;14.97;;;3.30;;
10880;SDS011;5493;48.884;8.338;2022-11-12T01:16:04;5.40;;;3.13;;
10880;SDS011;5493;48.884;8.338;2022-11-12T01:18:31;6.20;;;3.00;;
10880;SDS011;5493;48.884;8.338;2022-11-12T01:20:58;4.20;;;2.90;;
10880;SDS011;5493;48.884;8.338;2022-11-12T01:23:28;13.13;;;3.30;;
10880;SDS011;5493;48.884;8.338;2022-11-12T01:25:57;8.37;;;3.10;;
10880;SDS011;5493;48.884;8.338;2022-11-12T01:28:23;5.50;;;3.07;;
10880;SDS011;5493;48.884;8.338;2022-11-12T01:30:50;5.63;;;3.13;;
10880;SDS011;5493;48.884;8.338;2022-11-12T01:33:16;5.67;;;4.27;;
10880;SDS011;5493;48.884;8.338;2022-11-12T01:35:43;8.67;;;4.13;;
10880;SDS011;5493;48.884;8.338;2022-11-12T01:38:09;10.33;;;3.70;;
10880;SDS011;5493;48.884;8.338;2022-11-12T01:40:37;17.20;;;3.83;;
10880;SDS011;5493;48.884;8.338;2022-11-12T01:43:04;5.07;;;3.70;;
10880;SDS011;5493;48.884;8.338;2022-11-12T01:45:37;4.70;;;3.20;;
10880;SDS011;5493;48.884;8.338;2022-11-12T01:48:23;6.10;;;3.93;;
10880;SDS011;5493;48.884;8.338;2022-11-12T01:50:52;5.90;;;3.70;;
10880;SDS011;5493;48.884;8.338;2022-11-12T01:53:21;9.80;;;4.10;;
10880;SDS011;5493;48.884;8.338;2022-11-12T01:55:52;7.77;;;4.43;;
10880;SDS011;5493;48.884;8.338;2022-11-12T01:58:21;11.00;;;4.93;;
10880;SDS011;5493;48.884;8.338;2022-11-12T02:00:52;6.47;;;4.20;;
10880;SDS011;5493;48.884;8.338;2022-11-12T02:03:19;10.77;;;4.00;;
10880;SDS011;5493;48.884;8.338;2022-11-12T02:05:48;8.17;;;4.33;;
10880;SDS011;5493;48.884;8.338;2022-11-12T02:08:19;8.40;;;4.20;;
10880;SDS011;5493;48.884;8.338;2022-11-12T02:10:48;11.17;;;3.93;;
10880;SDS011;5493;48.884;8.338;2022-11-12T02:13:17;6.27;;;3.87;;
10880;SDS011;5493;48.884;8.338;2022-11-12T02:16:02;8.03;;;4.43;;
10880;SDS011;5493;48.884;8.338;2022-11-12T02:18:28;12.33;;;4.10;;
10880;SDS011;5493;48.884;8.338;2022-11-12T02:20:56;19.60;;;4.37;;
10880;SDS011;5493;48.884;8.338;2022-11-12T02:23:29;4.87;;;3.63;;
10880;SDS011;5493;48.884;8.338;2022-11-12T02:25:58;5.40;;;3.63;;
10880;SDS011;5493;48.884;8.338;2022-11-12T02:28:25;9.97;;;4.00;;
10880;SDS011;5493;48.884;8.338;2022-11-12T02:30:53;9.53;;;4.00;;
10880;SDS011;5493;48.884;8.338;2022-11-12T02:33:19;8.63;;;4.00;;
10880;SDS011;5493;48.884;8.338;2022-11-12T02:35:46;13.13;;;3.60;;
10880;SDS011;5493;48.884;8.338;2022-11-12T02:38:12;6.40;;;3.33;;
10880;SDS011;5493;48.884;8.338;2022-11-12T02:40:40;5.60;;;3.43;;
10880;SDS011;5493;48.884;8.338;2022-11-12T02:43:07;7.40;;;3.23;;
10880;SDS011;5493;48.884;8.338;2022-11-12T02:45:33;6.07;;;3.70;;
10880;SDS011;5493;48.884;8.338;2022-11-12T02:48:00;9.03;;;3.80;;
10880;SDS011;5493;48.884;8.338;2022-11-12T02:50:27;9.23;;;3.50;;
10880;SDS011;5493;48.884;8.338;2022-11-12T02:52:53;7.43;;;3.47;;
10880;SDS011;5493;48.884;8.338;2022-11-12T02:55:20;5.20;;;3.33;;
10880;SDS011;5493;48.884;8.338;2022-11-12T02:57:48;5.67;;;3.40;;
10880;SDS011;5493;48.884;8.338;2022-11-12T03:00:14;4.67;;;3.00;;
10880;SDS011;5493;48.884;8.338;2022-11-12T03:02:42;6.27;;;2.93;;
10880;SDS011;5493;48.884;8.338;2022-11-12T03:05:22;9.27;;;3.30;;
10880;SDS011;5493;48.884;8.338;2022-11-12T03:07:49;5.40;;;3.50;;
10880;SDS011;5493;48.884;8.338;2022-11-12T03:10:20;10.27;;;3.20;;
10880;SDS011;5493;48.884;8.338;2022-11-12T03:12:48;4.10;;;2.93;;
10880;SDS011;5493;48.884;8.338;2022-11-12T03:15:14;3.77;;;2.80;;
10880;SDS011;5493;48.884;8.338;2022-11-12T03:17:41;5.67;;;3.37;;
10880;SDS011;5493;48.884;8.338;2022-11-12T03:20:08;4.60;;;2.90;;
10880;SDS011;5493;48.884;8.338;2022-11-12T03:22:35;3.93;;;3.03;;
10880;SDS011;5493;48.884;8.338;2022-11-12T03:25:02;6.97;;;4.20;;
10880;SDS011;5493;48.884;8.338;2022-11-12T03:27:30;10.30;;;3.77;;
10880;SDS011;5493;48.884;8.338;2022-11-12T03:29:58;7.80;;;3.87;;
10880;SDS011;5493;48.884;8.338;2022-11-12T03:32:24;4.53;;;3.17;;
10880;SDS011;5493;48.884;8.338;2022-11-12T03:34:51;4.20;;;3.27;;
10880;SDS011;5493;48.884;8.338;2022-11-12T03:37:17;6.93;;;3.60;;
10880;SDS011;5493;48.884;8.338;2022-11-12T03:39:44;4.63;;;3.23;;
10880;SDS011;5493;48.884;8.338;2022-11-12T03:42:10;4.37;;;3.70;;
10880;SDS011;5493;48.884;8.338;2022-11-12T03:44:37;5.30;;;3.40;;
10880;SDS011;5493;48.884;8.338;2022-11-12T03:47:05;5.10;;;3.70;;
10880;SDS011;5493;48.884;8.338;2022-11-12T03:49:31;4.30;;;3.43;;
10880;SDS011;5493;48.884;8.338;2022-11-12T03:51:58;6.93;;;3.27;;
10880;SDS011;5493;48.884;8.338;2022-11-12T03:54:24;5.33;;;3.70;;
10880;SDS011;5493;48.884;8.338;2022-11-12T03:56:51;7.63;;;3.73;;
10880;SDS011;5493;48.884;8.338;2022-11-12T03:59:17;4.50;;;3.37;;
10880;SDS011;5493;48.884;8.338;2022-11-12T04:01:44;5.23;;;3.57;;
10880;SDS011;5493;48.884;8.338;2022-11-12T04:04:12;5.20;;;2.80;;
10880;SDS011;5493;48.884;8.338;2022-11-12T04:06:39;4.77;;;3.37;;
10880;SDS011;5493;48.884;8.338;2022-11-12T04:09:23;7.17;;;3.13;;
10880;SDS011;5493;48.884;8.338;2022-11-12T04:11:49;5.23;;;3.20;;
10880;SDS011;5493;48.884;8.338;2022-11-12T04:14:16;6.00;;;3.17;;
10880;SDS011;5493;48.884;8.338;2022-11-12T04:16:42;3.93;;;3.13;;
10880;SDS011;5493;48.884;8.338;2022-11-12T04:19:28;7.30;;;3.00;;
10880;SDS011;5493;48.884;8.338;2022-11-12T04:22:12;3.33;;;2.50;;
10880;SDS011;5493;48.884;8.338;2022-11-12T04:24:39;3.87;;;2.30;;
10880;SDS011;5493;48.884;8.338;2022-11-12T04:27:24;4.83;;;2.73;;
10880;SDS011;5493;48.884;8.338;2022-11-12T04:29:52;4.60;;;2.70;;
10880;SDS011;5493;48.884;8.338;2022-11-12T04:32:39;3.80;;;2.43;;
10880;SDS011;5493;48.884;8.338;2022-11-12T04:35:11;2.90;;;2.30;;
10880;SDS011;5493;48.884;8.338;2022-11-12T04:37:38;2.93;;;2.43;;
10880;SDS011;5493;48.884;8.338;2022-11-12T04:40:11;3.77;;;2.27;;
10880;SDS011;5493;48.884;8.338;2022-11-12T04:42:55;3.60;;;2.50;;
10880;SDS011;5493;48.884;8.338;2022-11-12T04:45:40;5.83;;;2.30;;
10880;SDS011;5493;48.884;8.338;2022-11-12T04:48:07;3.13;;;2.23;;
10880;SDS011;5493;48.884;8.338;2022-11-12T04:50:35;3.27;;;2.03;;
10880;SDS011;5493;48.884;8.338;2022-11-12T04:53:02;5.13;;;2.23;;
10880;SDS011;5493;48.884;8.338;2022-11-12T04:55:29;3.47;;;2.50;;
10880;SDS011;5493;48.884;8.338;2022-11-12T04:57:57;2.90;;;2.23;;
10880;SDS011;5493;48.884;8.338;2022-11-12T05:00:24;3.57;;;2.10;;
10880;SDS011;5493;48.884;8.338;2022-11-12T05:02:50;3.20;;;2.20;;
10880;SDS011;5493;48.884;8.338;2022-11-12T05:05:17;3.50;;;2.40;;
10880;SDS011;5493;48.884;8.338;2022-11-12T05:07:45;5.77;;;2.53;;
10880;SDS011;5493;48.884;8.338;2022-11-12T05:10:11;5.23;;;2.53;;
10880;SDS011;5493;48.884;8.338;2022-11-12T05:12:38;3.27;;;2.27;;
10880;SDS011;5493;48.884;8.338;2022-11-12T05:15:05;4.27;;;2.37;;
10880;SDS011;5493;48.884;8.338;2022-11-12T05:17:32;4.13;;;2.37;;
10880;SDS011;5493;48.884;8.338;2022-11-12T05:19:59;4.57;;;2.10;;
10880;SDS011;5493;48.884;8.338;2022-11-12T05:22:25;4.80;;;2.20;;
10880;SDS011;5493;48.884;8.338;2022-11-12T05:24:52;4.07;;;2.50;;
10880;SDS011;5493;48.884;8.338;2022-11-12T05:27:19;3.73;;;2.20;;
10880;SDS011;5493;48.884;8.338;2022-11-12T05:29:46;3.03;;;2.03;;
10880;SDS011;5493;48.884;8.338;2022-11-12T05:32:13;3.20;;;2.10;;
10880;SDS011;5493;48.884;8.338;2022-11-12T05:34:42;5.47;;;2.33;;
10880;SDS011;5493;48.884;8.338;2022-11-12T05:37:09;3.30;;;2.50;;
10880;SDS011;5493;48.884;8.338;2022-11-12T05:39:37;6.87;;;3.17;;
10880;SDS011;5493;48.884;8.338;2022-11-12T05:42:05;4.10;;;3.10;;
10880;SDS011;5493;48.884;8.338;2022-11-12T05:44:32;3.70;;;3.00;;
10880;SDS011;5493;48.884;8.338;2022-11-12T05:46:59;5.67;;;2.57;;
10880;SDS011;5493;48.884;8.338;2022-11-12T05:49:25;5.90;;;2.37;;
10880;SDS011;5493;48.884;8.338;2022-11-12T05:51:52;3.97;;;2.70;;
10880;SDS011;5493;48.884;8.338;2022-11-12T05:54:18;3.60;;;2.37;;
10880;SDS011;5493;48.884;8.338;2022-11-12T05:56:45;3.23;;;2.27;;
10880;SDS011;5493;48.884;8.338;2022-11-12T05:59:13;2.30;;;1.93;;
10880;SDS011;5493;48.884;8.338;2022-11-12T06:01:40;3.07;;;2.20;;
10880;SDS011;5493;48.884;8.338;2022-11-12T06:04:09;3.60;;;2.63;;
10880;SDS011;5493;48.884;8.338;2022-11-12T06:06:37;3.00;;;2.47;;
10880;SDS011;5493;48.884;8.338;2022-11-12T06:09:04;4.27;;;2.47;;
10880;SDS011;5493;48.884;8.338;2022-11-12T06:11:31;4.93;;;2.90;;
10880;SDS011;5493;48.884;8.338;2022-11-12T06:13:58;3.57;;;2.50;;
10880;SDS011;5493;48.884;8.338;2022-11-12T06:16:26;5.97;;;2.30;;
10880;SDS011;5493;48.884;8.338;2022-11-12T06:18:53;3.20;;;2.27;;
10880;SDS011;5493;48.884;8.338;2022-11-12T06:21:20;5.13;;;2.70;;
10880;SDS011;5493;48.884;8.338;2022-11-12T06:23:48;3.83;;;2.50;;
10880;SDS011;5493;48.884;8.338;2022-11-12T06:26:16;4.30;;;2.80;;
10880;SDS011;5493;48.884;8.338;2022-11-12T06:28:44;3.30;;;2.40;;
10880;SDS011;5493;48.884;8.338;2022-11-12T06:31:11;3.27;;;2.30;;
10880;SDS011;5493;48.884;8.338;2022-11-12T06:33:39;3.60;;;2.00;;
10880;SDS011;5493;48.884;8.338;2022-11-12T06:36:06;2.13;;;1.63;;
10880;SDS011;5493;48.884;8.338;2022-11-12T06:38:33;2.40;;;1.90;;
10880;SDS011;5493;48.884;8.338;2022-11-12T06:41:01;15.57;;;6.23;;
10880;SDS011;5493;48.884;8.338;2022-11-12T06:43:29;21.90;;;8.23;;
10880;SDS011;5493;48.884;8.338;2022-11-12T06:45:58;7.73;;;3.80;;
10880;SDS011;5493;48.884;8.338;2022-11-12T06:48:26;15.63;;;5.93;;
10880;SDS011;5493;48.884;8.338;2022-11-12T06:50:54;12.23;;;4.53;;
10880;SDS011;5493;48.884;8.338;2022-11-12T06:53:21;8.53;;;4.07;;
10880;SDS011;5493;48.884;8.338;2022-11-12T06:55:47;4.93;;;3.33;;
10880;SDS011;5493;48.884;8.338;2022-11-12T06:58:14;4.90;;;2.77;;
10880;SDS011;5493;48.884;8.338;2022-11-12T07:00:41;4.67;;;2.93;;
10880;SDS011;5493;48.884;8.338;2022-11-12T07:03:07;4.03;;;3.00;;
10880;SDS011;5493;48.884;8.338;2022-11-12T07:05:35;3.53;;;2.83;;
10880;SDS011;5493;48.884;8.338;2022-11-12T07:08:03;3.00;;;2.63;;
10880;SDS011;5493;48.884;8.338;2022-11-12T07:10:31;3.57;;;2.30;;
10880;SDS011;5493;48.884;8.338;2022-11-12T07:12:58;2.93;;;2.33;;
10880;SDS011;5493;48.884;8.338;2022-11-12T07:15:24;4.60;;;2.10;;
10880;SDS011;5493;48.884;8.338;2022-11-12T07:17:51;2.90;;;2.20;;
10880;SDS011;5493;48.884;8.338;2022-11-12T07:20:17;2.20;;;1.60;;
10880;SDS011;5493;48.884;8.338;2022-11-12T07:22:44;3.37;;;2.47;;
10880;SDS011;5493;48.884;8.338;2022-11-12T07:25:12;5.67;;;4.20;;
10880;SDS011;5493;48.884;8.338;2022-11-12T07:27:38;4.67;;;3.30;;
10880;SDS011;5493;48.884;8.338;2022-11-12T07:30:05;4.10;;;2.90;;
10880;SDS011;5493;48.884;8.338;2022-11-12T07:32:33;3.03;;;2.47;;
10880;SDS011;5493;48.884;8.338;2022-11-12T07:35:00;4.27;;;3.10;;
10880;SDS011;5493;48.884;8.338;2022-11-12T07:37:26;3.47;;;2.33;;
10880;SDS011;5493;48.884;8.338;2022-11-12T07:39:53;3.10;;;2.23;;
10880;SDS011;5493;48.884;8.338;2022-11-12T07:42:21;2.77;;;2.23;;
10880;SDS011;5493;48.884;8.338;2022-11-12T07:44:47;2.40;;;2.00;;
10880;SDS011;5493;48.884;8.338;2022-11-12T07:47:14;5.23;;;2.80;;
10880;SDS011;5493;48.884;8.338;2022-11-12T07:49:40;3.10;;;2.60;;
10880;SDS011;5493;48.884;8.338;2022-11-12T07:52:07;2.60;;;2.13;;
10880;SDS011;5493;48.884;8.338;2022-11-12T07:54:34;2.73;;;2.27;;
10880;SDS011;5493;48.884;8.338;2022-11-12T07:57:00;3.03;;;2.40;;
10880;SDS011;5493;48.884;8.338;2022-11-12T07:59:28;1.77;;;1.67;;
10880;SDS011;5493;48.884;8.338;2022-11-12T08:01:55;3.47;;;2.20;;
10880;SDS011;5493;48.884;8.338;2022-11-12T08:04:21;3.03;;;1.90;;
10880;SDS011;5493;48.884;8.338;2022-11-12T08:06:48;2.20;;;1.97;;
10880;SDS011;5493;48.884;8.338;2022-11-12T08:09:14;2.80;;;2.27;;
10880;SDS011;5493;48.884;8.338;2022-11-12T08:11:41;2.97;;;2.13;;
10880;SDS011;5493;48.884;8.338;2022-11-12T08:14:08;2.33;;;2.13;;
10880;SDS011;5493;48.884;8.338;2022-11-12T08:16:36;3.50;;;2.10;;
10880;SDS011;5493;48.884;8.338;2022-11-12T08:19:02;3.57;;;2.50;;
10880;SDS011;5493;48.884;8.338;2022-11-12T08:21:29;2.90;;;2.40;;
10880;SDS011;5493;48.884;8.338;2022-11-12T08:23:55;4.33;;;2.70;;
10880;SDS011;5493;48.884;8.338;2022-11-12T08:26:22;6.83;;;2.67;;
10880;SDS011;5493;48.884;8.338;2022-11-12T08:28:50;3.57;;;2.57;;
10880;SDS011;5493;48.884;8.338;2022-11-12T08:31:17;3.53;;;2.57;;
10880;SDS011;5493;48.884;8.338;2022-11-12T08:33:47;4.83;;;2.80;;
10880;SDS011;5493;48.884;8.338;2022-11-12T08:36:15;4.13;;;2.30;;
10880;SDS011;5493;48.884;8.338;2022-11-12T08:38:42;3.37;;;2.83;;
10880;SDS011;5493;48.884;8.338;2022-11-12T08:41:10;5.67;;;3.63;;
10880;SDS011;5493;48.884;8.338;2022-11-12T08:43:38;5.03;;;3.90;;
10880;SDS011;5493;48.884;8.338;2022-11-12T08:46:05;13.33;;;7.00;;
10880;SDS011;5493;48.884;8.338;2022-11-12T08:48:32;8.27;;;4.60;;
10880;SDS011;5493;48.884;8.338;2022-11-12T08:51:01;4.13;;;3.00;;
10880;SDS011;5493;48.884;8.338;2022-11-12T08:53:27;3.73;;;3.10;;
10880;SDS011;5493;48.884;8.338;2022-11-12T08:55:54;5.87;;;3.77;;
10880;SDS011;5493;48.884;8.338;2022-11-12T08:58:21;4.93;;;3.83;;
10880;SDS011;5493;48.884;8.338;2022-11-12T09:00:49;7.90;;;5.57;;
10880;SDS011;5493;48.884;8.338;2022-11-12T09:03:16;6.20;;;4.03;;
10880;SDS011;5493;48.884;8.338;2022-11-12T09:05:44;5.70;;;3.90;;
10880;SDS011;5493;48.884;8.338;2022-11-12T09:08:13;6.73;;;4.80;;
10880;SDS011;5493;48.884;8.338;2022-11-12T09:10:41;5.73;;;4.57;;
10880;SDS011;5493;48.884;8.338;2022-11-12T09:13:08;5.03;;;3.50;;
10880;SDS011;5493;48.884;8.338;2022-11-12T09:15:34;4.90;;;3.70;;
10880;SDS011;5493;48.884;8.338;2022-11-12T09:18:01;6.80;;;3.70;;
10880;SDS011;5493;48.884;8.338;2022-11-12T09:20:29;6.33;;;4.30;;
10880;SDS011;5493;48.884;8.338;2022-11-12T09:22:57;6.17;;;4.53;;
10880;SDS011;5493;48.884;8.338;2022-11-12T09:25:26;6.87;;;4.90;;
10880;SDS011;5493;48.884;8.338;2022-11-12T09:27:53;7.17;;;4.60;;
10880;SDS011;5493;48.884;8.338;2022-11-12T09:30:20;34.07;;;20.83;;
10880;SDS011;5493;48.884;8.338;2022-11-12T09:32:47;10.10;;;7.73;;
10880;SDS011;5493;48.884;8.338;2022-11-12T09:35:14;6.27;;;4.70;;
10880;SDS011;5493;48.884;8.338;2022-11-12T09:37:40;6.00;;;4.30;;
10880;SDS011;5493;48.884;8.338;2022-11-12T09:40:08;8.47;;;6.80;;
10880;SDS011;5493;48.884;8.338;2022-11-12T09:42:43;7.23;;;5.00;;
10880;SDS011;5493;48.884;8.338;2022-11-12T09:45:13;7.40;;;5.37;;
10880;SDS011;5493;48.884;8.338;2022-11-12T09:47:48;7.53;;;5.23;;
10880;SDS011;5493;48.884;8.338;2022-11-12T09:50:19;7.90;;;5.83;;
10880;SDS011;5493;48.884;8.338;2022-11-12T09:52:51;6.50;;;5.03;;
10880;SDS011;5493;48.884;8.338;2022-11-12T09:55:27;5.77;;;4.53;;
10880;SDS011;5493;48.884;8.338;2022-11-12T09:57:58;7.30;;;5.07;;
10880;SDS011;5493;48.884;8.338;2022-11-12T10:00:25;9.47;;;5.87;;
10880;SDS011;5493;48.884;8.338;2022-11-12T10:02:52;9.67;;;6.83;;
10880;SDS011;5493;48.884;8.338;2022-11-12T10:05:25;8.87;;;6.20;;
10880;SDS011;5493;48.884;8.338;2022-11-12T10:08:01;8.23;;;5.27;;
10880;SDS011;5493;48.884;8.338;2022-11-12T10:10:37;7.37;;;5.50;;
10880;SDS011;5493;48.884;8.338;2022-11-12T10:13:17;6.67;;;5.50;;
10880;SDS011;5493;48.884;8.338;2022-11-12T10:15:53;7.57;;;5.67;;
10880;SDS011;5493;48.884;8.338;2022-11-12T10:18:53;7.53;;;5.90;;
10880;SDS011;5493;48.884;8.338;2022-11-12T10:21:38;8.53;;;6.23;;
10880;SDS011;5493;48.884;8.338;2022-11-12T10:24:08;8.20;;;5.87;;
10880;SDS011;5493;48.884;8.338;2022-11-12T10:26:36;8.90;;;6.30;;
10880;SDS011;5493;48.884;8.338;2022-11-12T10:29:11;11.13;;;6.53;;
10880;SDS011;5493;48.884;8.338;2022-11-12T10:31:42;9.00;;;6.20;;
10880;SDS011;5493;48.884;8.338;2022-11-12T10:34:15;8.20;;;5.27;;
10880;SDS011;5493;48.884;8.338;2022-11-12T10:36:44;9.20;;;5.77;;
10880;SDS011;5493;48.884;8.338;2022-11-12T10:39:31;9.73;;;6.47;;
10880;SDS011;5493;48.884;8.338;2022-11-12T10:42:01;8.67;;;5.43;;
10880;SDS011;5493;48.884;8.338;2022-11-12T10:44:31;10.20;;;6.57;;
10880;SDS011;5493;48.884;8.338;2022-11-12T10:50:05;13.73;;;7.83;;
10880;SDS011;5493;48.884;8.338;2022-11-12T10:52:51;12.63;;;7.77;;
10880;SDS011;5493;48.884;8.338;2022-11-12T10:55:19;12.50;;;7.57;;
10880;SDS011;5493;48.884;8.338;2022-11-12T10:58:00;9.97;;;7.07;;
10880;SDS011;5493;48.884;8.338;2022-11-12T11:00:30;11.07;;;6.80;;
10880;SDS011;5493;48.884;8.338;2022-11-12T11:02:58;10.97;;;7.43;;
10880;SDS011;5493;48.884;8.338;2022-11-12T11:05:30;12.77;;;7.00;;
10880;SDS011;5493;48.884;8.338;2022-11-12T11:07:59;12.20;;;7.50;;
10880;SDS011;5493;48.884;8.338;2022-11-12T11:10:28;13.07;;;7.83;;
10880;SDS011;5493;48.884;8.338;2022-11-12T11:13:08;15.43;;;8.23;;
10880;SDS011;5493;48.884;8.338;2022-11-12T11:15:47;12.97;;;8.47;;
10880;SDS011;5493;48.884;8.338;2022-11-12T11:18:24;16.03;;;7.93;;
10880;SDS011;5493;48.884;8.338;2022-11-12T11:20:52;12.33;;;7.97;;
10880;SDS011;5493;48.884;8.338;2022-11-12T11:23:29;11.03;;;7.33;;
10880;SDS011;5493;48.884;8.338;2022-11-12T11:26:03;12.13;;;6.87;;
10880;SDS011;5493;48.884;8.338;2022-11-12T11:28:42;13.43;;;7.57;;
10880;SDS011;5493;48.884;8.338;2022-11-12T11:31:21;12.03;;;7.07;;
10880;SDS011;5493;48.884;8.338;2022-11-12T11:33:55;11.20;;;6.77;;
10880;SDS011;5493;48.884;8.338;2022-11-12T11:36:31;11.70;;;7.37;;
10880;SDS011;5493;48.884;8.338;2022-11-12T11:39:05;13.63;;;8.13;;
10880;SDS011;5493;48.884;8.338;2022-11-12T11:41:46;11.53;;;7.50;;
10880;SDS011;5493;48.884;8.338;2022-11-12T11:44:25;10.37;;;7.13;;
10880;SDS011;5493;48.884;8.338;2022-11-12T11:47:07;12.83;;;8.00;;
10880;SDS011;5493;48.884;8.338;2022-11-12T11:49:55;14.77;;;8.40;;
10880;SDS011;5493;48.884;8.338;2022-11-12T11:52:38;13.87;;;9.33;;
10880;SDS011;5493;48.884;8.338;2022-11-12T11:55:25;11.07;;;8.03;;
10880;SDS011;5493;48.884;8.338;2022-11-12T11:58:01;12.97;;;8.33;;
10880;SDS011;5493;48.884;8.338;2022-11-12T12:00:34;12.60;;;8.07;;
10880;SDS011;5493;48.884;8.338;2022-11-12T12:03:14;10.03;;;6.87;;
10880;SDS011;5493;48.884;8.338;2022-11-12T12:05:54;9.90;;;7.17;;
10880;SDS011;5493;48.884;8.338;2022-11-12T12:08:40;11.40;;;7.80;;
10880;SDS011;5493;48.884;8.338;2022-11-12T12:11:29;11.70;;;7.43;;
10880;SDS011;5493;48.884;8.338;2022-11-12T12:14:11;13.97;;;8.80;;
10880;SDS011;5493;48.884;8.338;2022-11-12T12:16:49;9.70;;;6.13;;
10880;SDS011;5493;48.884;8.338;2022-11-12T12:19:30;9.13;;;6.63;;
10880;SDS011;5493;48.884;8.338;2022-11-12T12:22:08;9.80;;;7.07;;
10880;SDS011;5493;48.884;8.338;2022-11-12T12:24:43;12.37;;;7.23;;
10880;SDS011;5493;48.884;8.338;2022-11-12T12:27:15;11.07;;;6.90;;
10880;SDS011;5493;48.884;8.338;2022-11-12T12:29:46;10.27;;;7.23;;
10880;SDS011;5493;48.884;8.338;2022-11-12T12:32:17;11.00;;;6.27;;
10880;SDS011;5493;48.884;8.338;2022-11-12T12:34:54;9.57;;;6.63;;
10880;SDS011;5493;48.884;8.338;2022-11-12T12:37:28;9.80;;;6.90;;
10880;SDS011;5493;48.884;8.338;2022-11-12T12:40:02;9.27;;;6.50;;
10880;SDS011;5493;48.884;8.338;2022-11-12T12:42:40;8.73;;;6.17;;
10880;SDS011;5493;48.884;8.338;2022-11-12T12:45:21;13.37;;;6.77;;
10880;SDS011;5493;48.884;8.338;2022-11-12T12:47:55;11.23;;;6.77;;
10880;SDS011;5493;48.884;8.338;2022-11-12T12:50:24;10.77;;;7.10;;
10880;SDS011;5493;48.884;8.338;2022-11-12T12:52:58;11.30;;;6.90;;
10880;SDS011;5493;48.884;8.338;2022-11-12T12:55:38;10.57;;;7.40;;
10880;SDS011;5493;48.884;8.338;2022-11-12T12:58:22;12.30;;;6.83;;
10880;SDS011;5493;48.884;8.338;2022-11-12T13:00:52;11.17;;;7.23;;
10880;SDS011;5493;48.884;8.338;2022-11-12T13:03:45;12.37;;;7.47;;
10880;SDS011;5493;48.884;8.338;2022-11-12T13:06:26;12.80;;;8.23;;
10880;SDS011;5493;48.884;8.338;2022-11-12T13:08:57;12.93;;;8.17;;
10880;SDS011;5493;48.884;8.338;2022-11-12T13:11:45;15.73;;;9.50;;
10880;SDS011;5493;48.884;8.338;2022-11-12T13:14:43;13.83;;;8.70;;
10880;SDS011;5493;48.884;8.338;2022-11-12T13:17:40;14.07;;;8.80;;
10880;SDS011;5493;48.884;8.338;2022-11-12T13:26:40;13.77;;;8.73;;
10880;SDS011;5493;48.884;8.338;2022-11-12T13:29:20;13.47;;;8.87;;
10880;SDS011;5493;48.884;8.338;2022-11-12T13:37:53;12.73;;;8.10;;
10880;SDS011;5493;48.884;8.338;2022-11-12T13:40:32;12.73;;;8.00;;
10880;SDS011;5493;48.884;8.338;2022-11-12T13:43:05;13.17;;;7.97;;
10880;SDS011;5493;48.884;8.338;2022-11-12T13:45:38;13.43;;;8.47;;
10880;SDS011;5493;48.884;8.338;2022-11-12T13:48:08;14.03;;;8.53;;
10880;SDS011;5493;48.884;8.338;2022-11-12T13:50:40;14.17;;;9.27;;
10880;SDS011;5493;48.884;8.338;2022-11-12T13:53:08;14.27;;;8.33;;
10880;SDS011;5493;48.884;8.338;2022-11-12T13:55:47;13.20;;;8.57;;
10880;SDS011;5493;48.884;8.338;2022-11-12T13:58:17;13.23;;;8.03;;
10880;SDS011;5493;48.884;8.338;2022-11-12T14:00:49;11.53;;;7.80;;
10880;SDS011;5493;48.884;8.338;2022-11-12T14:03:17;11.90;;;7.90;;
10880;SDS011;5493;48.884;8.338;2022-11-12T14:05:45;12.70;;;7.77;;
10880;SDS011;5493;48.884;8.338;2022-11-12T14:08:18;11.43;;;7.57;;
10880;SDS011;5493;48.884;8.338;2022-11-12T14:11:12;11.43;;;7.43;;
10880;SDS011;5493;48.884;8.338;2022-11-12T14:13:52;12.60;;;7.40;;
10880;SDS011;5493;48.884;8.338;2022-11-12T14:16:30;12.17;;;7.77;;
10880;SDS011;5493;48.884;8.338;2022-11-12T14:19:11;11.30;;;6.73;;
10880;SDS011;5493;48.884;8.338;2022-11-12T14:21:57;13.37;;;7.83;;
10880;SDS011;5493;48.884;8.338;2022-11-12T14:24:25;11.50;;;7.57;;
10880;SDS011;5493;48.884;8.338;2022-11-12T14:26:53;11.50;;;6.93;;
10880;SDS011;5493;48.884;8.338;2022-11-12T14:29:20;12.00;;;7.60;;
10880;SDS011;5493;48.884;8.338;2022-11-12T14:31:46;11.77;;;7.80;;
10880;SDS011;5493;48.884;8.338;2022-11-12T14:34:26;17.20;;;8.43;;
10880;SDS011;5493;48.884;8.338;2022-11-12T14:36:54;14.10;;;8.40;;
10880;SDS011;5493;48.884;8.338;2022-11-12T14:39:21;11.33;;;7.63;;
10880;SDS011;5493;48.884;8.338;2022-11-12T14:41:49;12.93;;;8.83;;
10880;SDS011;5493;48.884;8.338;2022-11-12T14:44:19;18.73;;;9.70;;
10880;SDS011;5493;48.884;8.338;2022-11-12T14:46:49;12.23;;;8.47;;
10880;SDS011;5493;48.884;8.338;2022-11-12T14:49:20;10.83;;;7.73;;
10880;SDS011;5493;48.884;8.338;2022-11-12T14:51:52;13.80;;;8.10;;
10880;SDS011;5493;48.884;8.338;2022-11-12T14:54:26;14.20;;;8.30;;
10880;SDS011;5493;48.884;8.338;2022-11-12T14:56:57;12.37;;;8.53;;
10880;SDS011;5493;48.884;8.338;2022-11-12T14:59:27;16.33;;;9.10;;
10880;SDS011;5493;48.884;8.338;2022-11-12T15:02:04;12.27;;;8.33;;
10880;SDS011;5493;48.884;8.338;2022-11-12T15:04:35;18.80;;;9.17;;
10880;SDS011;5493;48.884;8.338;2022-11-12T15:07:04;18.93;;;9.33;;
10880;SDS011;5493;48.884;8.338;2022-11-12T15:09:32;13.37;;;7.83;;
10880;SDS011;5493;48.884;8.338;2022-11-12T15:12:00;14.77;;;9.30;;
10880;SDS011;5493;48.884;8.338;2022-11-12T15:14:29;12.50;;;8.00;;
10880;SDS011;5493;48.884;8.338;2022-11-12T15:16:56;13.87;;;8.03;;
10880;SDS011;5493;48.884;8.338;2022-11-12T15:19:24;12.23;;;7.33;;
10880;SDS011;5493;48.884;8.338;2022-11-12T15:21:53;12.83;;;7.70;;
10880;SDS011;5493;48.884;8.338;2022-11-12T15:24:24;10.27;;;7.70;;
10880;SDS011;5493;48.884;8.338;2022-11-12T15:26:53;12.37;;;7.60;;
10880;SDS011;5493;48.884;8.338;2022-11-12T15:29:23;11.67;;;7.67;;
10880;SDS011;5493;48.884;8.338;2022-11-12T15:31:54;12.53;;;7.63;;